Newport, MI (48166)

5:46 AM EST on February 09, 2016 (GMT -0500)
Hebeeb Homestead | | Change Station
CLOSE
Current Station
Personal Weather Station
Location: Berlin Charter Township, MI
Elevation: 581 ft
Nearby Weather Stations

Elev 581 ft 42.00 °N, 83.28 °W | Updated 13 minutes ago

Overcast
Overcast
30.9 °F
Feels Like 25 °F
N
5.8
Wind Variable Wind from WSW

Today
High -- | Low -- °F
--% Chance of Precip.
Yesterday
High -- | Low -- °F
Precip. -- in
Pressure 29.54 in
Visibility 7.0 miles
Clouds Mostly Cloudy 4700 ft
Overcast 6000 ft
Windchill 25 °F
Dew Point 28 °F
Humidity 89%
Rainfall 0.00 in
Snow Depth Not available.
7:37 AM 5:57 PM
New Moon, 1% visible
METAR KTTF 091033Z AUTO 26008KT 7SM -SN BKN047 OVC060 00/M02 A2954 RMK AO2 T10051021
Pressure 29.54 in
Visibility 7.0 miles
Clouds Mostly Cloudy 4700 ft
Overcast 6000 ft
Windchill 25 °F
Dew Point 28 °F
Humidity 89%
Rainfall 0.00 in
Snow Depth Not available.
7:37 AM 5:57 PM
New Moon, 1% visible
METAR KTTF 091033Z AUTO 26008KT 7SM -SN BKN047 OVC060 00/M02 A2954 RMK AO2 T10051021

10-Day Weather Forecast

Almanac

Astronomy

Feb. 09, 2016 Rise Set
Actual Time
Civil Twilight
Nautical Twilight
Astronomical Twilight
Moon
Length of Visible Light
Length of Day
Tomorrow will be .
, % of the Moon is Illuminated

Today's Extremes

State Highs State Lows

Community

WunderPhotos

Upload Photos

1,891,565 photos uploaded!

WunderBlog® & News

Nearby

Air Quality

  Air Quality AQ Index Pollutant
Not available.

Snow Depth

Station Depth Elevation

Earthquake Activity

City Distance Mag. Time & Date
Minimum magnitude displayed is 2.5.

Coastal Water Temperatures

Place Temperature

Stations

Nearby Weather Stations

Station Location Temp. Windchill Dew Point Humidity Wind Precip. Elev Updated Type
                   

Watches & Warnings

There are currently no watches in effect.